createdAt,value
2023-05-05T00:00:35.767Z,748.00
2023-05-05T00:01:35.864Z,746.00
2023-05-05T00:02:35.934Z,745.00
2023-05-05T00:03:36.180Z,745.00
2023-05-05T00:04:36.054Z,744.00
2023-05-05T00:05:36.108Z,743.00
2023-05-05T00:06:36.166Z,745.00
2023-05-05T00:07:36.232Z,747.00
2023-05-05T00:08:36.300Z,750.00
2023-05-05T00:09:36.365Z,750.00
2023-05-05T00:10:36.398Z,753.00
2023-05-05T00:11:36.485Z,753.00
2023-05-05T00:12:36.574Z,752.00
2023-05-05T00:13:36.600Z,752.00
2023-05-05T00:14:36.665Z,749.00
2023-05-05T00:15:36.759Z,748.00
2023-05-05T00:16:36.846Z,746.00
2023-05-05T00:17:36.899Z,742.00
2023-05-05T00:18:36.908Z,737.00
2023-05-05T00:19:37.003Z,738.00
2023-05-05T00:20:37.037Z,737.00
2023-05-05T00:21:37.073Z,738.00
2023-05-05T00:22:37.170Z,736.00
2023-05-05T00:23:37.196Z,740.00
2023-05-05T00:24:37.259Z,741.00
2023-05-05T00:25:37.365Z,741.00
2023-05-05T00:26:37.391Z,739.00
2023-05-05T00:27:39.463Z,740.00
2023-05-05T00:28:37.456Z,738.00
2023-05-05T00:29:37.448Z,738.00
2023-05-05T00:30:37.608Z,734.00
2023-05-05T00:31:37.431Z,733.00
2023-05-05T00:32:37.466Z,735.00
2023-05-05T00:33:37.448Z,735.00
2023-05-05T00:34:37.411Z,733.00
2023-05-05T00:35:37.403Z,733.00
2023-05-05T00:36:37.431Z,734.00
2023-05-05T00:37:37.416Z,735.00
2023-05-05T00:38:37.385Z,737.00
2023-05-05T00:39:37.362Z,734.00
2023-05-05T00:40:37.396Z,734.00
2023-05-05T00:41:37.355Z,734.00
2023-05-05T00:42:37.378Z,734.00
2023-05-05T00:43:37.374Z,736.00
2023-05-05T00:44:37.356Z,732.00
2023-05-05T00:45:37.368Z,731.00
2023-05-05T00:46:37.405Z,731.00
2023-05-05T00:47:37.329Z,730.00
2023-05-05T00:48:37.336Z,731.00
2023-05-05T00:49:37.425Z,731.00
2023-05-05T00:50:37.361Z,732.00
2023-05-05T00:51:37.307Z,734.00
2023-05-05T00:52:37.316Z,736.00
2023-05-05T00:53:37.295Z,736.00
2023-05-05T00:54:37.304Z,735.00
2023-05-05T00:55:37.292Z,734.00
2023-05-05T00:56:37.285Z,733.00
2023-05-05T00:57:37.273Z,732.00
2023-05-05T00:58:37.261Z,732.00
2023-05-05T00:59:37.262Z,731.00
2023-05-05T01:00:37.279Z,730.00
2023-05-05T01:01:37.433Z,729.00
2023-05-05T01:02:37.515Z,727.00
2023-05-05T01:03:37.588Z,728.00
2023-05-05T01:04:37.541Z,728.00
2023-05-05T01:05:37.628Z,729.00
2023-05-05T01:06:37.666Z,729.00
2023-05-05T01:07:37.782Z,728.00
2023-05-05T01:08:37.818Z,731.00
2023-05-05T01:09:37.843Z,732.00
2023-05-05T01:10:37.932Z,733.00
2023-05-05T01:11:37.997Z,733.00
2023-05-05T01:12:38.052Z,733.00
2023-05-05T01:13:38.127Z,734.00
2023-05-05T01:14:38.168Z,731.00
2023-05-05T01:15:38.230Z,730.00
2023-05-05T01:16:38.363Z,729.00
2023-05-05T01:17:38.429Z,730.00
2023-05-05T01:18:38.436Z,731.00
2023-05-05T01:19:38.547Z,732.00
2023-05-05T01:20:38.541Z,734.00
2023-05-05T01:21:38.633Z,732.00
2023-05-05T01:22:38.669Z,731.00
2023-05-05T01:23:38.767Z,729.00
2023-05-05T01:24:38.789Z,728.00
2023-05-05T01:25:38.871Z,726.00
2023-05-05T01:26:38.950Z,724.00
2023-05-05T01:27:39.021Z,726.00
2023-05-05T01:28:39.082Z,725.00
2023-05-05T01:29:39.145Z,725.00
2023-05-05T01:30:39.216Z,725.00
2023-05-05T01:31:39.276Z,725.00
2023-05-05T01:32:39.347Z,723.00
2023-05-05T01:33:39.379Z,721.00
2023-05-05T01:34:39.439Z,721.00
2023-05-05T01:35:39.558Z,720.00
2023-05-05T01:36:39.592Z,721.00
2023-05-05T01:37:39.637Z,720.00
2023-05-05T01:38:39.712Z,720.00
2023-05-05T01:39:39.760Z,718.00
2023-05-05T01:40:39.850Z,717.00
2023-05-05T01:41:39.907Z,717.00
2023-05-05T01:42:39.978Z,714.00
2023-05-05T01:43:40.000Z,716.00
2023-05-05T01:44:40.078Z,716.00
2023-05-05T01:45:40.170Z,714.00
2023-05-05T01:46:40.198Z,713.00
2023-05-05T01:47:40.318Z,716.00
2023-05-05T01:48:42.243Z,717.00
2023-05-05T01:49:40.412Z,718.00
2023-05-05T01:50:40.429Z,717.00
2023-05-05T01:51:40.534Z,714.00
2023-05-05T01:52:40.580Z,711.00
2023-05-05T01:53:40.624Z,710.00
2023-05-05T01:54:40.690Z,711.00
2023-05-05T01:55:40.801Z,710.00
2023-05-05T01:56:40.825Z,709.00
2023-05-05T01:57:40.925Z,708.00
2023-05-05T01:58:40.965Z,707.00
2023-05-05T01:59:41.018Z,705.00
2023-05-05T02:00:41.095Z,705.00
2023-05-05T02:01:41.269Z,706.00
2023-05-05T02:02:41.269Z,705.00
2023-05-05T02:03:41.282Z,708.00
2023-05-05T02:04:41.308Z,707.00
2023-05-05T02:05:41.387Z,705.00
2023-05-05T02:06:41.469Z,706.00
2023-05-05T02:07:41.540Z,707.00
2023-05-05T02:08:41.571Z,709.00
2023-05-05T02:09:41.650Z,711.00
2023-05-05T02:10:41.735Z,713.00
2023-05-05T02:11:41.811Z,712.00
2023-05-05T02:12:41.857Z,712.00
2023-05-05T02:13:42.038Z,711.00
2023-05-05T02:14:41.963Z,713.00
2023-05-05T02:15:42.064Z,713.00
2023-05-05T02:16:42.092Z,712.00
2023-05-05T02:17:42.172Z,712.00
2023-05-05T02:18:42.227Z,712.00
2023-05-05T02:19:42.258Z,709.00
2023-05-05T02:20:42.359Z,708.00
2023-05-05T02:21:42.414Z,710.00
2023-05-05T02:22:42.488Z,711.00
2023-05-05T02:23:42.543Z,711.00
2023-05-05T02:24:42.596Z,712.00
2023-05-05T02:25:42.676Z,710.00
2023-05-05T02:26:42.741Z,712.00
2023-05-05T02:27:42.765Z,712.00
2023-05-05T02:28:42.822Z,711.00
2023-05-05T02:29:42.893Z,712.00
2023-05-05T02:30:42.990Z,713.00
2023-05-05T02:31:43.114Z,712.00
2023-05-05T02:32:43.147Z,712.00
2023-05-05T02:33:43.203Z,710.00
2023-05-05T02:34:43.235Z,709.00
2023-05-05T02:35:43.286Z,709.00
2023-05-05T02:36:43.386Z,709.00
2023-05-05T02:37:43.400Z,707.00
2023-05-05T02:38:43.484Z,706.00
2023-05-05T02:39:43.523Z,705.00
2023-05-05T02:40:43.582Z,704.00
2023-05-05T02:41:43.639Z,705.00
2023-05-05T02:42:43.713Z,705.00
2023-05-05T02:43:43.753Z,705.00
2023-05-05T02:44:43.798Z,706.00
2023-05-05T02:45:43.842Z,705.00
2023-05-05T02:46:43.968Z,705.00
2023-05-05T02:47:44.001Z,705.00
2023-05-05T02:48:44.050Z,706.00
2023-05-05T02:49:44.115Z,708.00
2023-05-05T02:50:44.192Z,707.00
2023-05-05T02:51:44.268Z,704.00
2023-05-05T02:52:44.317Z,703.00
2023-05-05T02:53:44.383Z,703.00
2023-05-05T02:54:44.428Z,701.00
2023-05-05T02:55:44.462Z,701.00
2023-05-05T02:56:44.568Z,700.00
2023-05-05T02:57:44.628Z,698.00
2023-05-05T02:58:44.692Z,699.00
2023-05-05T02:59:44.733Z,699.00
2023-05-05T03:00:44.817Z,696.00
2023-05-05T03:01:44.910Z,695.00
2023-05-05T03:02:44.994Z,695.00
2023-05-05T03:03:45.097Z,699.00
2023-05-05T03:04:45.083Z,701.00
2023-05-05T03:05:45.136Z,699.00
2023-05-05T03:06:45.202Z,700.00
2023-05-05T03:07:45.235Z,700.00
2023-05-05T03:08:45.331Z,699.00
2023-05-05T03:09:45.380Z,696.00
2023-05-05T03:10:45.431Z,697.00
2023-05-05T03:11:45.507Z,699.00
2023-05-05T03:12:45.583Z,702.00
2023-05-05T03:13:45.624Z,702.00
2023-05-05T03:14:45.664Z,702.00
2023-05-05T03:15:45.690Z,701.00
2023-05-05T03:16:45.949Z,701.00
2023-05-05T03:17:45.845Z,701.00
2023-05-05T03:18:45.861Z,701.00
2023-05-05T03:19:45.965Z,703.00
2023-05-05T03:20:46.008Z,704.00
2023-05-05T03:21:46.044Z,703.00
2023-05-05T03:22:46.104Z,704.00
2023-05-05T03:23:46.209Z,704.00
2023-05-05T03:24:46.262Z,704.00
2023-05-05T03:25:46.313Z,704.00
2023-05-05T03:26:46.367Z,706.00
2023-05-05T03:27:46.438Z,703.00
2023-05-05T03:28:46.482Z,703.00
2023-05-05T03:29:46.536Z,704.00
2023-05-05T03:30:46.597Z,704.00
2023-05-05T03:31:46.675Z,706.00
2023-05-05T03:32:46.724Z,705.00
2023-05-05T03:33:46.764Z,705.00
2023-05-05T03:34:46.823Z,704.00
2023-05-05T03:35:46.895Z,703.00
2023-05-05T03:36:46.931Z,703.00
2023-05-05T03:37:46.979Z,701.00
2023-05-05T03:38:47.027Z,701.00
2023-05-05T03:39:47.090Z,700.00
2023-05-05T03:40:47.136Z,703.00
2023-05-05T03:41:47.196Z,703.00
2023-05-05T03:42:47.219Z,702.00
2023-05-05T03:43:47.253Z,702.00
2023-05-05T03:44:47.327Z,703.00
2023-05-05T03:45:47.420Z,701.00
2023-05-05T03:46:47.419Z,699.00
2023-05-05T03:47:47.487Z,697.00
2023-05-05T03:48:47.529Z,695.00
2023-05-05T03:49:47.609Z,696.00
2023-05-05T03:50:47.638Z,694.00
2023-05-05T03:51:47.682Z,695.00
2023-05-05T03:52:47.745Z,692.00
2023-05-05T03:53:47.797Z,693.00
2023-05-05T03:54:47.859Z,693.00
2023-05-05T03:55:47.897Z,693.00
2023-05-05T03:56:47.910Z,691.00
2023-05-05T03:57:47.984Z,688.00
2023-05-05T03:58:48.065Z,692.00
2023-05-05T03:59:48.088Z,692.00
2023-05-05T04:00:48.110Z,691.00
2023-05-05T04:01:48.179Z,690.00
2023-05-05T04:02:48.349Z,689.00
2023-05-05T04:03:48.333Z,690.00
2023-05-05T04:04:48.298Z,692.00
2023-05-05T04:05:48.344Z,692.00
2023-05-05T04:06:48.389Z,692.00
2023-05-05T04:07:48.460Z,692.00
2023-05-05T04:08:48.485Z,692.00
2023-05-05T04:09:48.510Z,691.00
2023-05-05T04:10:48.604Z,690.00
2023-05-05T04:11:48.666Z,689.00
2023-05-05T04:12:48.770Z,689.00
2023-05-05T04:13:48.741Z,690.00
2023-05-05T04:14:48.798Z,691.00
2023-05-05T04:15:48.874Z,692.00
2023-05-05T04:16:48.900Z,690.00
2023-05-05T04:17:48.974Z,687.00
2023-05-05T04:18:49.010Z,687.00
2023-05-05T04:19:49.041Z,689.00
2023-05-05T04:20:49.108Z,691.00
2023-05-05T04:21:49.135Z,691.00
2023-05-05T04:22:50.675Z,690.00
2023-05-05T04:23:49.176Z,690.00
2023-05-05T04:24:49.174Z,691.00
2023-05-05T04:25:49.151Z,692.00
2023-05-05T04:26:49.163Z,690.00
2023-05-05T04:27:49.128Z,686.00
2023-05-05T04:28:49.114Z,689.00
2023-05-05T04:29:49.118Z,688.00
2023-05-05T04:30:49.132Z,689.00
2023-05-05T04:31:49.188Z,687.00
2023-05-05T04:32:49.142Z,687.00
2023-05-05T04:33:49.097Z,686.00
2023-05-05T04:34:49.075Z,684.00
2023-05-05T04:35:49.099Z,684.00
2023-05-05T04:36:49.080Z,684.00
2023-05-05T04:37:49.098Z,683.00
2023-05-05T04:38:49.112Z,683.00
2023-05-05T04:39:49.079Z,682.00
2023-05-05T04:40:49.067Z,681.00
2023-05-05T04:41:49.029Z,683.00
2023-05-05T04:42:49.061Z,681.00
2023-05-05T04:43:49.040Z,681.00
2023-05-05T04:44:49.059Z,681.00
2023-05-05T04:45:49.023Z,683.00
2023-05-05T04:46:49.112Z,685.00
2023-05-05T04:47:49.052Z,688.00
2023-05-05T04:48:49.025Z,687.00
2023-05-05T04:49:49.013Z,686.00
2023-05-05T04:50:49.011Z,685.00
2023-05-05T04:51:48.986Z,686.00
2023-05-05T04:52:50.294Z,685.00
2023-05-05T04:53:48.981Z,686.00
2023-05-05T04:54:48.980Z,684.00
2023-05-05T04:55:48.970Z,685.00
2023-05-05T04:56:48.954Z,684.00
2023-05-05T04:57:48.972Z,684.00
2023-05-05T04:58:48.939Z,682.00
2023-05-05T04:59:48.955Z,684.00
2023-05-05T05:00:55.921Z,684.00
2023-05-05T05:01:48.959Z,685.00
2023-05-05T05:02:49.029Z,687.00
2023-05-05T05:03:48.928Z,687.00
2023-05-05T05:04:48.928Z,688.00
2023-05-05T05:05:48.885Z,690.00
2023-05-05T05:06:48.891Z,692.00
2023-05-05T05:07:48.912Z,693.00
2023-05-05T05:08:48.880Z,693.00
2023-05-05T05:09:48.857Z,694.00
2023-05-05T05:10:48.870Z,696.00
2023-05-05T05:11:48.881Z,694.00
2023-05-05T05:12:48.920Z,694.00
2023-05-05T05:13:48.880Z,691.00
2023-05-05T05:14:48.857Z,690.00
2023-05-05T05:15:48.851Z,688.00
2023-05-05T05:16:48.861Z,687.00
2023-05-05T05:17:48.924Z,687.00
2023-05-05T05:18:48.808Z,689.00
2023-05-05T05:19:48.823Z,689.00
2023-05-05T05:20:48.829Z,689.00
2023-05-05T05:21:48.829Z,687.00
2023-05-05T05:22:48.804Z,685.00
2023-05-05T05:23:48.779Z,685.00
2023-05-05T05:24:48.790Z,686.00
2023-05-05T05:25:48.815Z,685.00
2023-05-05T05:26:48.766Z,687.00
2023-05-05T05:27:55.310Z,687.00
2023-05-05T05:28:49.770Z,687.00
2023-05-05T05:29:48.768Z,689.00
2023-05-05T05:30:48.758Z,691.00
2023-05-05T05:31:49.243Z,690.00
2023-05-05T05:32:48.794Z,690.00
2023-05-05T05:33:48.757Z,717.00
2023-05-05T05:34:48.758Z,730.00
2023-05-05T05:35:48.778Z,743.00
2023-05-05T05:36:49.255Z,819.00
2023-05-05T05:37:48.771Z,837.00
2023-05-05T05:38:48.726Z,837.00
2023-05-05T05:39:48.785Z,904.00
2023-05-05T05:40:48.833Z,970.00
2023-05-05T05:41:49.201Z,975.00
2023-05-05T05:42:49.021Z,862.00
2023-05-05T05:43:48.999Z,785.00
2023-05-05T05:44:49.027Z,836.00
2023-05-05T05:45:49.060Z,947.00
2023-05-05T05:46:56.232Z,827.00
2023-05-05T05:47:49.079Z,825.00
2023-05-05T05:48:49.014Z,899.00
2023-05-05T05:49:49.064Z,847.00
2023-05-05T05:50:49.035Z,843.00
2023-05-05T05:51:49.025Z,902.00
2023-05-05T05:52:49.233Z,878.00
2023-05-05T05:53:48.995Z,820.00
2023-05-05T05:54:48.965Z,814.00
2023-05-05T05:55:48.968Z,809.00
2023-05-05T05:56:48.972Z,816.00
2023-05-05T05:57:49.226Z,878.00
2023-05-05T05:58:48.968Z,886.00
2023-05-05T05:59:48.981Z,946.00
2023-05-05T06:00:48.983Z,916.00
2023-05-05T06:01:48.944Z,1004.00
2023-05-05T06:02:49.032Z,1002.00
2023-05-05T06:03:49.008Z,1020.00
2023-05-05T06:04:48.931Z,1033.00
2023-05-05T06:05:48.908Z,1039.00
2023-05-05T06:06:48.919Z,1027.00
2023-05-05T06:07:48.932Z,1052.00
2023-05-05T06:08:48.886Z,1070.00
2023-05-05T06:09:48.910Z,1062.00
2023-05-05T06:10:48.912Z,1067.00
2023-05-05T06:11:48.912Z,1073.00
2023-05-05T06:12:49.268Z,1066.00
2023-05-05T06:13:48.854Z,1075.00
2023-05-05T06:14:48.857Z,1092.00
2023-05-05T06:15:48.910Z,1099.00
2023-05-05T06:16:48.942Z,1095.00
2023-05-05T06:17:48.999Z,1095.00
2023-05-05T06:18:48.989Z,1092.00
2023-05-05T06:19:49.039Z,1116.00
2023-05-05T06:20:49.063Z,1155.00
2023-05-05T06:21:49.083Z,1158.00
2023-05-05T06:22:49.108Z,1152.00
2023-05-05T06:23:49.143Z,1204.00
2023-05-05T06:24:49.149Z,1204.00
2023-05-05T06:25:49.166Z,1211.00
2023-05-05T06:26:49.215Z,1294.00
2023-05-05T06:27:49.238Z,1282.00
2023-05-05T06:28:49.221Z,1270.00
2023-05-05T06:29:49.234Z,1267.00
2023-05-05T06:30:49.264Z,1190.00
2023-05-05T06:31:49.374Z,1195.00
2023-05-05T06:32:49.369Z,1263.00
2023-05-05T06:33:49.297Z,1243.00
2023-05-05T06:34:49.324Z,1243.00
2023-05-05T06:35:49.349Z,1161.00
2023-05-05T06:36:49.377Z,1083.00
2023-05-05T06:37:49.761Z,922.00
2023-05-05T06:38:49.450Z,1065.00
2023-05-05T06:39:49.438Z,1145.00
2023-05-05T06:40:49.459Z,1198.00
2023-05-05T06:41:49.464Z,1199.00
2023-05-05T06:42:49.545Z,1306.00
2023-05-05T06:43:49.537Z,1315.00
2023-05-05T06:44:49.570Z,1236.00
2023-05-05T06:45:49.602Z,1343.00
2023-05-05T06:46:49.630Z,1310.00
2023-05-05T06:47:49.854Z,1301.00
2023-05-05T06:48:49.599Z,1188.00
2023-05-05T06:49:49.645Z,1171.00
2023-05-05T06:50:49.634Z,1095.00
2023-05-05T06:51:49.651Z,1032.00
2023-05-05T06:52:49.681Z,1038.00
2023-05-05T06:53:49.685Z,1030.00
2023-05-05T06:54:49.729Z,1006.00
2023-05-05T06:55:49.735Z,988.00
2023-05-05T06:56:49.765Z,930.00
2023-05-05T06:57:50.265Z,1003.00
2023-05-05T06:58:49.814Z,907.00
2023-05-05T06:59:49.911Z,924.00
2023-05-05T07:00:49.922Z,930.00
2023-05-05T07:01:49.915Z,905.00
2023-05-05T07:02:50.004Z,896.00
2023-05-05T07:03:50.014Z,881.00
2023-05-05T07:04:50.025Z,866.00
2023-05-05T07:05:50.180Z,846.00
2023-05-05T07:06:50.086Z,837.00
2023-05-05T07:07:50.159Z,830.00
2023-05-05T07:08:50.199Z,830.00
2023-05-05T07:09:50.229Z,810.00
2023-05-05T07:10:50.335Z,797.00
2023-05-05T07:11:50.315Z,797.00
2023-05-05T07:12:51.331Z,795.00
2023-05-05T07:13:50.410Z,809.00
2023-05-05T07:14:50.431Z,780.00
2023-05-05T07:15:50.660Z,769.00
2023-05-05T07:16:50.567Z,763.00
2023-05-05T07:17:50.622Z,767.00
2023-05-05T07:18:50.609Z,765.00
2023-05-05T07:19:50.641Z,762.00
2023-05-05T07:20:50.755Z,759.00
2023-05-05T07:21:50.745Z,755.00
2023-05-05T07:22:50.792Z,747.00
2023-05-05T07:23:50.883Z,738.00
2023-05-05T07:24:51.728Z,734.00
2023-05-05T07:25:50.939Z,732.00
2023-05-05T07:26:51.008Z,729.00
2023-05-05T07:27:51.058Z,728.00
2023-05-05T07:28:51.096Z,826.00
2023-05-05T07:29:51.126Z,787.00
2023-05-05T07:30:51.210Z,816.00
2023-05-05T07:31:51.508Z,913.00
2023-05-05T07:32:51.434Z,883.00
2023-05-05T07:33:51.323Z,911.00
2023-05-05T07:34:51.356Z,922.00
2023-05-05T07:35:51.470Z,910.00
2023-05-05T07:36:51.431Z,949.00
2023-05-05T07:37:51.433Z,961.00
2023-05-05T07:38:51.458Z,1028.00
2023-05-05T07:39:51.490Z,1048.00
2023-05-05T07:40:51.525Z,1041.00
2023-05-05T07:41:51.545Z,1042.00
2023-05-05T07:42:51.548Z,1170.00
2023-05-05T07:43:51.548Z,1121.00
2023-05-05T07:44:51.557Z,1269.00
2023-05-05T07:45:51.599Z,1196.00
2023-05-05T07:46:51.588Z,1197.00
2023-05-05T07:47:51.897Z,1177.00
2023-05-05T07:48:51.634Z,1243.00
2023-05-05T07:49:51.667Z,1287.00
2023-05-05T07:50:51.769Z,1204.00
2023-05-05T07:51:51.829Z,1208.00
2023-05-05T07:52:59.358Z,1204.00
2023-05-05T07:53:52.859Z,1213.00
2023-05-05T07:54:51.890Z,1211.00
2023-05-05T07:55:51.847Z,1223.00
2023-05-05T07:56:51.851Z,1262.00
2023-05-05T07:57:51.898Z,1416.00
2023-05-05T07:58:51.943Z,1290.00
2023-05-05T07:59:51.966Z,1206.00
2023-05-05T08:00:51.986Z,1205.00
2023-05-05T08:01:54.341Z,1197.00
2023-05-05T08:02:52.086Z,1194.00
2023-05-05T08:03:52.268Z,1194.00
2023-05-05T08:04:52.041Z,1197.00
2023-05-05T08:05:52.029Z,1205.00
2023-05-05T08:06:52.044Z,1204.00
2023-05-05T08:07:52.050Z,1193.00
2023-05-05T08:08:52.000Z,1192.00
2023-05-05T08:09:52.024Z,1177.00
2023-05-05T08:10:51.985Z,1176.00
2023-05-05T08:11:51.995Z,1176.00
2023-05-05T08:12:52.047Z,1171.00
2023-05-05T08:13:51.997Z,1112.00
2023-05-05T08:14:51.977Z,1144.00
2023-05-05T08:15:51.969Z,1149.00
2023-05-05T08:16:51.977Z,1075.00
2023-05-05T08:17:52.802Z,1112.00
2023-05-05T08:18:51.936Z,1065.00
2023-05-05T08:19:52.118Z,1040.00
2023-05-05T08:20:51.912Z,1122.00
2023-05-05T08:21:51.901Z,1124.00
2023-05-05T08:22:51.894Z,1115.00
2023-05-05T08:23:51.904Z,1111.00
2023-05-05T08:24:51.911Z,1111.00
2023-05-05T08:25:51.912Z,1119.00
2023-05-05T08:26:51.904Z,1114.00
2023-05-05T08:27:51.908Z,1107.00
2023-05-05T08:28:51.882Z,1104.00
2023-05-05T08:29:51.855Z,1096.00
2023-05-05T08:30:51.848Z,1092.00
2023-05-05T08:31:51.957Z,1080.00
2023-05-05T08:32:52.332Z,1062.00
2023-05-05T08:33:51.837Z,1051.00
2023-05-05T08:34:51.849Z,1048.00
2023-05-05T08:35:51.899Z,1039.00
2023-05-05T08:36:51.822Z,1034.00
2023-05-05T08:37:52.274Z,1034.00
2023-05-05T08:38:51.838Z,1022.00
2023-05-05T08:39:51.880Z,1008.00
2023-05-05T08:40:51.936Z,994.00
2023-05-05T08:41:52.010Z,990.00
2023-05-05T08:42:52.303Z,982.00
2023-05-05T08:43:52.119Z,983.00
2023-05-05T08:44:52.154Z,969.00
2023-05-05T08:45:52.195Z,956.00
2023-05-05T08:46:52.271Z,949.00
2023-05-05T08:47:52.372Z,948.00
2023-05-05T08:48:52.349Z,948.00
2023-05-05T08:49:52.400Z,940.00
2023-05-05T08:50:52.491Z,917.00
2023-05-05T08:51:52.517Z,919.00
2023-05-05T08:52:52.814Z,922.00
2023-05-05T08:53:52.591Z,907.00
2023-05-05T08:54:52.654Z,899.00
2023-05-05T08:55:52.704Z,910.00
2023-05-05T08:56:52.735Z,913.00
2023-05-05T08:57:52.817Z,912.00
2023-05-05T08:58:52.840Z,910.00
2023-05-05T08:59:52.879Z,906.00
2023-05-05T09:00:52.953Z,909.00
2023-05-05T09:01:52.896Z,914.00
2023-05-05T09:02:53.384Z,931.00
2023-05-05T09:03:52.846Z,939.00
2023-05-05T09:04:52.828Z,942.00
2023-05-05T09:05:52.843Z,942.00
2023-05-05T09:06:52.837Z,941.00
2023-05-05T09:07:52.898Z,938.00
2023-05-05T09:08:52.836Z,942.00
2023-05-05T09:09:52.796Z,939.00
2023-05-05T09:10:52.779Z,934.00
2023-05-05T09:11:52.802Z,932.00
2023-05-05T09:12:52.835Z,926.00
2023-05-05T09:13:52.830Z,927.00
2023-05-05T09:14:52.819Z,926.00
2023-05-05T09:15:52.771Z,928.00
2023-05-05T09:16:52.794Z,933.00
2023-05-05T09:17:52.783Z,935.00
2023-05-05T09:18:52.824Z,934.00
2023-05-05T09:19:52.781Z,928.00
2023-05-05T09:20:52.779Z,940.00
2023-05-05T09:21:52.788Z,942.00
2023-05-05T09:22:52.872Z,932.00
2023-05-05T09:23:52.976Z,920.00
2023-05-05T09:24:52.867Z,905.00
2023-05-05T09:25:52.945Z,898.00
2023-05-05T09:26:52.968Z,883.00
2023-05-05T09:27:52.964Z,852.00
2023-05-05T09:28:53.349Z,855.00
2023-05-05T09:29:53.009Z,867.00
2023-05-05T09:30:53.043Z,906.00
2023-05-05T09:31:53.107Z,889.00
2023-05-05T09:32:53.214Z,881.00
2023-05-05T09:33:53.344Z,873.00
2023-05-05T09:34:53.223Z,870.00
2023-05-05T09:35:53.159Z,865.00
2023-05-05T09:36:53.204Z,863.00
2023-05-05T09:37:53.215Z,859.00
2023-05-05T09:38:53.254Z,854.00
2023-05-05T09:39:53.326Z,857.00
2023-05-05T09:40:53.304Z,856.00
2023-05-05T09:41:53.342Z,860.00
2023-05-05T09:42:53.405Z,833.00
2023-05-05T09:43:53.827Z,740.00
2023-05-05T09:44:53.460Z,775.00
2023-05-05T09:45:53.503Z,794.00
2023-05-05T09:46:53.629Z,810.00
2023-05-05T09:48:53.835Z,784.00
2023-05-05T09:49:53.707Z,765.00
2023-05-05T09:50:53.763Z,772.00
2023-05-05T09:51:53.817Z,793.00
2023-05-05T09:52:53.829Z,725.00
2023-05-05T09:53:53.865Z,717.00
2023-05-05T09:54:53.914Z,726.00
2023-05-05T09:55:54.023Z,770.00
2023-05-05T09:56:54.020Z,770.00
2023-05-05T09:57:54.058Z,786.00
2023-05-05T09:58:54.090Z,820.00
2023-05-05T09:59:54.143Z,837.00
2023-05-05T10:00:54.140Z,854.00
2023-05-05T10:01:54.268Z,847.00
2023-05-05T10:02:54.218Z,856.00
2023-05-05T10:03:54.248Z,844.00
2023-05-05T10:04:54.280Z,855.00
2023-05-05T10:05:54.276Z,856.00
2023-05-05T10:06:54.273Z,856.00
2023-05-05T10:07:54.289Z,866.00
2023-05-05T10:08:54.293Z,873.00
2023-05-05T10:09:54.306Z,872.00
2023-05-05T10:10:54.303Z,887.00
2023-05-05T10:11:54.364Z,900.00
2023-05-05T10:12:54.324Z,903.00
2023-05-05T10:13:54.280Z,858.00
2023-05-05T10:14:54.279Z,912.00
2023-05-05T10:15:54.354Z,792.00
2023-05-05T10:16:54.300Z,783.00
2023-05-05T10:18:05.297Z,777.00
2023-05-05T10:18:55.327Z,794.00
2023-05-05T10:19:54.297Z,865.00
2023-05-05T10:20:54.276Z,879.00
2023-05-05T10:21:54.263Z,860.00
2023-05-05T10:22:54.257Z,858.00
2023-05-05T10:23:54.244Z,934.00
2023-05-05T10:24:54.256Z,951.00
2023-05-05T10:25:54.249Z,983.00
2023-05-05T10:26:54.201Z,1030.00
2023-05-05T10:27:54.333Z,1008.00
2023-05-05T10:28:54.236Z,997.00
2023-05-05T10:29:54.219Z,992.00
2023-05-05T10:30:54.187Z,986.00
2023-05-05T10:31:54.323Z,981.00
2023-05-05T10:33:00.873Z,981.00
2023-05-05T10:33:55.265Z,981.00
2023-05-05T10:34:54.199Z,982.00
2023-05-05T10:35:54.167Z,980.00
2023-05-05T10:36:54.163Z,978.00
2023-05-05T10:37:54.169Z,973.00
2023-05-05T10:38:54.371Z,970.00
2023-05-05T10:39:54.145Z,968.00
2023-05-05T10:40:54.154Z,966.00
2023-05-05T10:41:54.130Z,964.00
2023-05-05T10:42:54.213Z,962.00
2023-05-05T10:43:54.516Z,960.00
2023-05-05T10:44:54.190Z,959.00
2023-05-05T10:45:54.204Z,957.00
2023-05-05T10:46:54.093Z,957.00
2023-05-05T10:47:54.158Z,955.00
2023-05-05T10:48:54.414Z,954.00
2023-05-05T10:49:54.102Z,955.00
2023-05-05T10:50:54.089Z,954.00
2023-05-05T10:51:54.080Z,954.00
2023-05-05T10:52:54.069Z,952.00
2023-05-05T10:53:54.417Z,952.00
2023-05-05T10:54:54.057Z,951.00
2023-05-05T10:55:54.068Z,949.00
2023-05-05T10:56:54.076Z,945.00
2023-05-05T10:57:54.020Z,946.00
2023-05-05T10:59:00.208Z,945.00
2023-05-05T10:59:55.013Z,944.00
2023-05-05T11:00:54.018Z,944.00
2023-05-05T11:01:54.022Z,943.00
2023-05-05T11:02:54.040Z,942.00
2023-05-05T11:03:54.048Z,941.00
2023-05-05T11:04:53.985Z,940.00
2023-05-05T11:05:53.981Z,945.00
2023-05-05T11:06:53.995Z,945.00
2023-05-05T11:07:53.987Z,945.00
2023-05-05T11:08:53.966Z,947.00
2023-05-05T11:09:53.966Z,947.00
2023-05-05T11:10:53.982Z,949.00
2023-05-05T11:11:53.940Z,948.00
2023-05-05T11:12:53.954Z,948.00
2023-05-05T11:13:53.955Z,943.00
2023-05-05T11:14:53.952Z,943.00
2023-05-05T11:15:54.138Z,942.00
2023-05-05T11:16:53.993Z,939.00
2023-05-05T11:17:54.052Z,937.00
2023-05-05T11:18:53.905Z,936.00
2023-05-05T11:19:54.420Z,937.00
2023-05-05T11:20:53.890Z,936.00
2023-05-05T11:21:53.904Z,935.00
2023-05-05T11:22:53.852Z,936.00
2023-05-05T11:23:53.879Z,935.00
2023-05-05T11:24:53.891Z,933.00
2023-05-05T11:25:53.852Z,933.00
2023-05-05T11:26:53.866Z,932.00
2023-05-05T11:27:53.836Z,930.00
2023-05-05T11:28:53.833Z,930.00
2023-05-05T11:29:53.902Z,931.00
2023-05-05T11:30:53.893Z,930.00
2023-05-05T11:31:53.931Z,931.00
2023-05-05T11:32:53.817Z,929.00
2023-05-05T11:33:53.800Z,931.00
2023-05-05T11:34:53.867Z,930.00
2023-05-05T11:35:53.820Z,929.00
2023-05-05T11:36:53.807Z,928.00
2023-05-05T11:37:53.786Z,930.00
2023-05-05T11:38:53.763Z,931.00
2023-05-05T11:39:53.772Z,930.00
2023-05-05T11:40:53.780Z,930.00
2023-05-05T11:41:53.755Z,932.00
2023-05-05T11:42:53.765Z,931.00
2023-05-05T11:43:53.738Z,931.00
2023-05-05T11:44:53.734Z,930.00
2023-05-05T11:45:53.737Z,933.00
2023-05-05T11:46:54.325Z,931.00
2023-05-05T11:47:53.732Z,931.00
2023-05-05T11:48:53.697Z,930.00
2023-05-05T11:49:53.710Z,928.00
2023-05-05T11:50:53.700Z,930.00
2023-05-05T11:51:53.732Z,927.00
2023-05-05T11:52:53.668Z,927.00
2023-05-05T11:53:53.704Z,926.00
2023-05-05T11:54:53.685Z,927.00
2023-05-05T11:55:53.696Z,926.00
2023-05-05T11:56:53.716Z,923.00
2023-05-05T11:57:53.704Z,920.00
2023-05-05T11:58:53.720Z,921.00
2023-05-05T11:59:53.719Z,921.00
2023-05-05T12:00:53.701Z,921.00
2023-05-05T12:01:53.736Z,922.00
2023-05-05T12:02:53.808Z,923.00
2023-05-05T12:03:53.970Z,921.00
2023-05-05T12:04:54.104Z,917.00
2023-05-05T12:05:53.782Z,919.00
2023-05-05T12:06:53.784Z,916.00
2023-05-05T12:07:53.796Z,918.00
2023-05-05T12:08:53.792Z,920.00
2023-05-05T12:09:53.818Z,919.00
2023-05-05T12:10:53.801Z,920.00
2023-05-05T12:11:53.835Z,921.00
2023-05-05T12:12:55.147Z,923.00
2023-05-05T12:13:53.873Z,922.00
2023-05-05T12:14:53.853Z,921.00
2023-05-05T12:15:53.922Z,917.00
2023-05-05T12:16:53.880Z,915.00
2023-05-05T12:17:54.020Z,913.00
2023-05-05T12:18:53.919Z,913.00
2023-05-05T12:19:53.992Z,912.00
2023-05-05T12:20:53.922Z,912.00
2023-05-05T12:21:53.959Z,913.00
2023-05-05T12:22:53.992Z,915.00
2023-05-05T12:23:53.996Z,913.00
2023-05-05T12:24:55.003Z,911.00
2023-05-05T12:25:54.013Z,912.00